This is the latest recevied weather packets stored in our database for station/object WC4PEM-15. If no packets are shown the sender has not sent any weather packets the latest 10 day(s).
| Time | Temp. | Humidity | Pressure | Rain* | Wind** | Luminosity | Snow |
|---|---|---|---|---|---|---|---|
| 1777902606 | 23.89° C | 64% | 1016.8 hPa | 0 mm | - | - | - |
| 1777902306 | 23.89° C | 65% | 1016.9 hPa | 0 mm | - | - | - |
| 1777902217 | 23.33° C | 66% | 1016.7 hPa | 0 mm | - | - | - |
| 1777902006 | 23.89° C | 65% | 1016.6 hPa | 0 mm | - | - | - |
| 1777901706 | 23.33° C | 66% | 1016.7 hPa | 0 mm | - | - | - |
| 1777901620 | 23.33° C | 69% | 1016.8 hPa | 0 mm | - | - | - |
| 1777901406 | 23.33° C | 69% | 1016.8 hPa | 0 mm | - | - | - |
| 1777901310 | 22.78° C | 70% | 1016.9 hPa | 0 mm | - | - | - |
| 1777901106 | 22.78° C | 70% | 1016.9 hPa | 0 mm | - | - | - |
| 1777900852 | 22.78° C | 71% | 1016.6 hPa | 0 mm | - | - | - |
| 1777900806 | 22.78° C | 71% | 1016.6 hPa | 0 mm | - | - | - |
| 1777900686 | 22.22° C | 72% | 1016.6 hPa | 0 mm | - | - | - |
| 1777900506 | 22.22° C | 72% | 1016.6 hPa | 0 mm | - | - | - |
| 1777900395 | 22.22° C | 72% | 1016.5 hPa | 0 mm | - | - | - |
| 1777900211 | 22.22° C | 74% | 1016.7 hPa | 0 mm | - | - | - |
| 1777900206 | 22.22° C | 72% | 1016.5 hPa | 0 mm | - | - | - |
| 1777899906 | 22.22° C | 74% | 1016.7 hPa | 0 mm | - | - | - |
| 1777899606 | 21.67° C | 74% | 1016.5 hPa | 0 mm | - | - | - |
| 1777899306 | 21.67° C | 74% | 1016.5 hPa | 0 mm | - | - | - |
| 1777899006 | 21.67° C | 74% | 1016.5 hPa | 0 mm | - | - | - |
| 1777898706 | 21.11° C | 75% | 1016.5 hPa | 0 mm | - | - | - |
| 1777898406 | 21.11° C | 76% | 1016.5 hPa | 0 mm | - | - | - |
| 1777898106 | 20.56° C | 77% | 1016.4 hPa | 0 mm | - | - | - |
| 1777897806 | 20.56° C | 78% | 1016.4 hPa | 0 mm | - | - | - |
| 1777897506 | 20° C | 78% | 1016.4 hPa | 0 mm | - | - | - |
* Rain latest hour (hover to see other rain measurements)
** Current wind speed in m/s (hover to see current wind gust speed)